createdAt,value
2023-03-31T00:00:00.604Z,11.2
2023-03-31T00:01:00.657Z,11.2
2023-03-31T00:02:01.285Z,11.3
2023-03-31T00:03:00.695Z,11.3
2023-03-31T00:04:01.209Z,11.2
2023-03-31T00:05:00.741Z,11.2
2023-03-31T00:06:00.598Z,11.4
2023-03-31T00:07:00.604Z,11.4
2023-03-31T00:08:00.601Z,11.3
2023-03-31T00:09:00.604Z,11.3
2023-03-31T00:10:16.104Z,11.2
2023-03-31T00:11:01.588Z,11.2
2023-03-31T00:12:00.600Z,11.3
2023-03-31T00:13:01.139Z,11.3
2023-03-31T00:14:00.893Z,11.2
2023-03-31T00:15:00.636Z,11.2
2023-03-31T00:16:04.024Z,11.1
2023-03-31T00:17:00.610Z,11.1
2023-03-31T00:18:00.841Z,11.0
2023-03-31T00:19:00.686Z,11.0
2023-03-31T00:20:00.601Z,11.1
2023-03-31T00:21:10.531Z,11.1
2023-03-31T00:22:00.585Z,11.0
2023-03-31T00:23:00.599Z,11.0
2023-03-31T00:24:02.835Z,11.1
2023-03-31T00:25:00.584Z,11.1
2023-03-31T00:26:00.581Z,11.1
2023-03-31T00:27:01.408Z,11.1
2023-03-31T00:28:00.600Z,11.1
2023-03-31T00:29:01.194Z,11.1
2023-03-31T00:30:00.585Z,11.0
2023-03-31T00:31:01.644Z,11.0
2023-03-31T00:32:00.649Z,11.1
2023-03-31T00:33:00.684Z,11.1
2023-03-31T00:34:00.606Z,11.1
2023-03-31T00:35:00.784Z,11.1
2023-03-31T00:36:00.593Z,11.1
2023-03-31T00:37:00.595Z,11.1
2023-03-31T00:38:00.595Z,11.3
2023-03-31T00:39:02.463Z,11.3
2023-03-31T00:40:01.036Z,11.2
2023-03-31T00:41:01.508Z,11.2
2023-03-31T00:42:01.482Z,11.3
2023-03-31T00:43:00.677Z,11.3
2023-03-31T00:44:00.583Z,11.3
2023-03-31T00:45:10.531Z,11.3
2023-03-31T00:46:04.215Z,11.3
2023-03-31T00:47:04.023Z,11.3
2023-03-31T00:48:10.662Z,11.3
2023-03-31T00:49:01.021Z,11.3
2023-03-31T00:50:00.868Z,11.3
2023-03-31T00:51:02.968Z,11.3
2023-03-31T00:52:07.673Z,11.3
2023-03-31T00:53:04.875Z,11.3
2023-03-31T00:54:02.238Z,11.2
2023-03-31T00:55:04.096Z,11.2
2023-03-31T00:56:03.389Z,11.3
2023-03-31T00:57:01.746Z,11.3
2023-03-31T00:58:01.138Z,11.3
2023-03-31T00:59:02.313Z,11.3
2023-03-31T01:00:02.214Z,11.3
2023-03-31T01:01:01.884Z,11.3
2023-03-31T01:02:01.554Z,11.3
2023-03-31T01:03:04.395Z,11.3
2023-03-31T01:04:01.698Z,11.2
2023-03-31T01:05:00.665Z,11.2
2023-03-31T01:06:02.403Z,11.3
2023-03-31T01:07:10.529Z,11.3
2023-03-31T01:08:01.120Z,11.1
2023-03-31T01:09:01.456Z,11.1
2023-03-31T01:10:01.693Z,11.2
2023-03-31T01:11:02.408Z,11.2
2023-03-31T01:12:03.182Z,11.1
2023-03-31T01:13:00.675Z,11.1
2023-03-31T01:14:00.782Z,11.1
2023-03-31T01:15:01.845Z,11.1
2023-03-31T01:16:00.811Z,11.1
2023-03-31T01:17:00.828Z,11.1
2023-03-31T01:18:01.010Z,11.1
2023-03-31T01:19:00.670Z,11.1
2023-03-31T01:20:09.919Z,11.1
2023-03-31T01:21:00.575Z,11.1
2023-03-31T01:22:10.543Z,11.2
2023-03-31T01:23:10.517Z,11.2
2023-03-31T01:24:00.618Z,11.1
2023-03-31T01:25:11.576Z,11.1
2023-03-31T01:26:10.556Z,11.1
2023-03-31T01:27:09.801Z,11.1
2023-03-31T01:28:08.146Z,11.1
2023-03-31T01:29:10.517Z,11.1
2023-03-31T01:30:01.636Z,10.9
2023-03-31T01:31:10.582Z,10.9
2023-03-31T01:32:10.532Z,11.1
2023-03-31T01:33:10.575Z,11.1
2023-03-31T01:34:10.535Z,11.1
2023-03-31T01:35:10.540Z,11.1
2023-03-31T01:36:10.584Z,11.1
2023-03-31T01:37:00.599Z,11.1
2023-03-31T01:38:10.526Z,11.1
2023-03-31T01:39:00.581Z,11.1
2023-03-31T01:40:00.673Z,11.1
2023-03-31T01:41:07.224Z,11.1
2023-03-31T01:42:00.605Z,11.1
2023-03-31T01:43:10.547Z,11.1
2023-03-31T01:44:10.534Z,11.1
2023-03-31T01:45:10.523Z,11.1
2023-03-31T01:46:10.590Z,11.0
2023-03-31T01:47:05.857Z,11.0
2023-03-31T01:48:05.417Z,11.0
2023-03-31T01:49:10.552Z,11.0
2023-03-31T01:50:04.765Z,11.1
2023-03-31T01:51:02.565Z,11.1
2023-03-31T01:52:01.646Z,11.0
2023-03-31T01:53:10.517Z,11.0
2023-03-31T01:54:10.543Z,11.0
2023-03-31T01:55:00.574Z,11.0
2023-03-31T01:56:01.597Z,11.0
2023-03-31T01:57:02.868Z,11.0
2023-03-31T01:58:10.518Z,11.1
2023-03-31T01:59:06.221Z,11.1
2023-03-31T02:00:05.535Z,11.1
2023-03-31T02:01:05.170Z,11.1
2023-03-31T02:02:01.625Z,11.1
2023-03-31T02:03:00.661Z,11.1
2023-03-31T02:04:04.739Z,11.1
2023-03-31T02:05:03.373Z,11.1
2023-03-31T02:06:09.095Z,11.0
2023-03-31T02:07:03.218Z,11.0
2023-03-31T02:08:07.297Z,11.0
2023-03-31T02:09:02.394Z,11.0
2023-03-31T02:10:03.237Z,10.9
2023-03-31T02:11:01.458Z,10.9
2023-03-31T02:12:02.880Z,11.0
2023-03-31T02:13:02.279Z,11.0
2023-03-31T02:14:03.174Z,10.9
2023-03-31T02:15:02.476Z,10.9
2023-03-31T02:16:04.020Z,10.9
2023-03-31T02:17:01.023Z,10.9
2023-03-31T02:18:02.851Z,10.9
2023-03-31T02:19:02.517Z,10.9
2023-03-31T02:20:03.311Z,10.9
2023-03-31T02:21:00.749Z,10.9
2023-03-31T02:22:01.660Z,10.9
2023-03-31T02:23:01.262Z,10.9
2023-03-31T02:24:03.558Z,10.8
2023-03-31T02:25:01.996Z,10.8
2023-03-31T02:26:04.315Z,10.9
2023-03-31T02:27:10.515Z,10.9
2023-03-31T02:28:04.773Z,10.9
2023-03-31T02:29:01.019Z,10.9
2023-03-31T02:30:01.188Z,10.9
2023-03-31T02:31:10.594Z,10.9
2023-03-31T02:32:10.511Z,10.8
2023-03-31T02:33:00.672Z,10.8
2023-03-31T02:34:00.652Z,10.9
2023-03-31T02:35:00.950Z,10.9
2023-03-31T02:36:00.881Z,10.9
2023-03-31T02:37:00.954Z,10.9
2023-03-31T02:38:00.607Z,10.9
2023-03-31T02:39:03.956Z,10.9
2023-03-31T02:40:04.410Z,11.0
2023-03-31T02:41:00.628Z,11.0
2023-03-31T02:42:01.889Z,11.1
2023-03-31T02:43:00.744Z,11.1
2023-03-31T02:44:00.617Z,11.0
2023-03-31T02:45:01.723Z,11.0
2023-03-31T02:46:00.614Z,11.0
2023-03-31T02:47:02.341Z,11.0
2023-03-31T02:48:00.658Z,11.0
2023-03-31T02:49:01.995Z,11.0
2023-03-31T02:50:01.418Z,11.0
2023-03-31T02:51:07.585Z,11.0
2023-03-31T02:52:10.524Z,11.0
2023-03-31T02:53:07.948Z,11.0
2023-03-31T02:54:07.848Z,11.1
2023-03-31T02:55:10.519Z,11.1
2023-03-31T02:56:10.510Z,11.0
2023-03-31T02:57:10.555Z,11.0
2023-03-31T02:58:00.576Z,10.9
2023-03-31T02:59:10.519Z,10.9
2023-03-31T03:00:10.536Z,10.9
2023-03-31T03:01:10.616Z,10.9
2023-03-31T03:02:10.543Z,10.9
2023-03-31T03:03:10.591Z,10.9
2023-03-31T03:04:10.531Z,10.9
2023-03-31T03:05:00.562Z,10.9
2023-03-31T03:06:10.955Z,10.9
2023-03-31T03:07:10.531Z,10.9
2023-03-31T03:08:03.836Z,11.0
2023-03-31T03:09:07.900Z,11.0
2023-03-31T03:10:00.575Z,10.9
2023-03-31T03:11:10.511Z,10.9
2023-03-31T03:12:07.396Z,11.0
2023-03-31T03:13:03.832Z,11.0
2023-03-31T03:14:03.846Z,11.0
2023-03-31T03:15:05.542Z,11.0
2023-03-31T03:16:04.904Z,10.9
2023-03-31T03:17:04.735Z,10.9
2023-03-31T03:18:01.421Z,10.9
2023-03-31T03:19:03.687Z,10.9
2023-03-31T03:20:01.374Z,10.9
2023-03-31T03:21:00.580Z,10.9
2023-03-31T03:22:00.651Z,10.9
2023-03-31T03:23:00.895Z,10.9
2023-03-31T03:24:00.835Z,10.8
2023-03-31T03:25:00.619Z,10.8
2023-03-31T03:26:00.664Z,10.8
2023-03-31T03:27:00.596Z,10.8
2023-03-31T03:28:00.598Z,10.9
2023-03-31T03:29:00.595Z,10.9
2023-03-31T03:30:01.142Z,10.9
2023-03-31T03:31:00.660Z,10.9
2023-03-31T03:32:00.612Z,11.0
2023-03-31T03:33:00.707Z,11.0
2023-03-31T03:34:00.613Z,11.0
2023-03-31T03:35:01.090Z,11.0
2023-03-31T03:36:00.720Z,11.0
2023-03-31T03:37:00.630Z,11.0
2023-03-31T03:38:00.688Z,10.9
2023-03-31T03:39:00.751Z,10.9
2023-03-31T03:40:00.682Z,11.0
2023-03-31T03:41:00.622Z,11.0
2023-03-31T03:42:00.594Z,10.9
2023-03-31T03:43:00.594Z,10.9
2023-03-31T03:44:00.613Z,10.9
2023-03-31T03:45:00.630Z,10.9
2023-03-31T03:46:01.013Z,10.9
2023-03-31T03:47:00.607Z,10.9
2023-03-31T03:48:00.770Z,10.9
2023-03-31T03:49:00.587Z,10.9
2023-03-31T03:50:01.375Z,10.9
2023-03-31T03:51:00.910Z,10.9
2023-03-31T03:52:00.608Z,10.7
2023-03-31T03:53:00.599Z,10.7
2023-03-31T03:54:00.642Z,10.8
2023-03-31T03:55:00.579Z,10.8
2023-03-31T03:56:00.591Z,10.7
2023-03-31T03:57:00.655Z,10.7
2023-03-31T03:58:00.584Z,10.9
2023-03-31T03:59:00.606Z,10.9
2023-03-31T04:00:00.635Z,10.9
2023-03-31T04:01:00.629Z,10.9
2023-03-31T04:02:00.622Z,10.8
2023-03-31T04:03:00.651Z,10.8
2023-03-31T04:04:00.605Z,10.8
2023-03-31T04:05:00.614Z,10.8
2023-03-31T04:06:00.581Z,10.9
2023-03-31T04:07:00.581Z,10.9
2023-03-31T04:08:00.608Z,10.8
2023-03-31T04:09:00.739Z,10.8
2023-03-31T04:10:00.735Z,10.9
2023-03-31T04:11:00.601Z,10.9
2023-03-31T04:12:00.643Z,10.7
2023-03-31T04:13:00.859Z,10.7
2023-03-31T04:14:00.596Z,10.8
2023-03-31T04:15:00.725Z,10.8
2023-03-31T04:16:00.624Z,10.6
2023-03-31T04:17:00.618Z,10.6
2023-03-31T04:18:00.616Z,10.5
2023-03-31T04:19:00.603Z,10.5
2023-03-31T04:20:00.993Z,10.5
2023-03-31T04:21:00.588Z,10.5
2023-03-31T04:22:00.590Z,10.7
2023-03-31T04:23:00.592Z,10.7
2023-03-31T04:24:01.140Z,10.6
2023-03-31T04:25:01.665Z,10.6
2023-03-31T04:26:00.587Z,10.6
2023-03-31T04:27:00.636Z,10.6
2023-03-31T04:28:00.596Z,10.7
2023-03-31T04:29:00.602Z,10.7
2023-03-31T04:30:00.696Z,10.6
2023-03-31T04:31:01.379Z,10.6
2023-03-31T04:32:00.656Z,10.6
2023-03-31T04:33:01.552Z,10.6
2023-03-31T04:34:00.587Z,10.7
2023-03-31T04:35:00.571Z,10.7
2023-03-31T04:36:00.590Z,10.6
2023-03-31T04:37:00.632Z,10.6
2023-03-31T04:38:00.626Z,10.7
2023-03-31T04:39:00.576Z,10.7
2023-03-31T04:40:00.718Z,10.7
2023-03-31T04:41:00.619Z,10.7
2023-03-31T04:42:00.643Z,10.6
2023-03-31T04:43:00.587Z,10.6
2023-03-31T04:44:00.655Z,10.6
2023-03-31T04:45:00.804Z,10.6
2023-03-31T04:46:00.661Z,10.6
2023-03-31T04:47:00.597Z,10.6
2023-03-31T04:48:00.670Z,10.7
2023-03-31T04:49:01.037Z,10.7
2023-03-31T04:50:00.582Z,10.8
2023-03-31T04:51:00.928Z,10.8
2023-03-31T04:52:00.598Z,10.8
2023-03-31T04:53:00.917Z,10.8
2023-03-31T04:54:00.574Z,10.9
2023-03-31T04:55:00.619Z,10.9
2023-03-31T04:56:00.645Z,10.7
2023-03-31T04:57:00.666Z,10.7
2023-03-31T04:58:00.589Z,10.8
2023-03-31T04:59:00.584Z,10.8
2023-03-31T05:00:00.590Z,10.7
2023-03-31T05:01:00.583Z,10.7
2023-03-31T05:02:00.604Z,10.7
2023-03-31T05:03:00.692Z,10.7
2023-03-31T05:04:01.342Z,10.8
2023-03-31T05:05:00.632Z,10.8
2023-03-31T05:06:00.624Z,10.7
2023-03-31T05:07:00.601Z,10.7
2023-03-31T05:08:00.760Z,10.7
2023-03-31T05:09:00.589Z,10.7
2023-03-31T05:10:00.592Z,10.8
2023-03-31T05:11:01.728Z,10.8
2023-03-31T05:12:00.579Z,10.7
2023-03-31T05:13:00.593Z,10.7
2023-03-31T05:14:00.597Z,10.6
2023-03-31T05:15:00.766Z,10.6
2023-03-31T05:16:08.904Z,10.6
2023-03-31T05:17:00.644Z,10.6
2023-03-31T05:18:00.621Z,10.6
2023-03-31T05:19:00.698Z,10.6
2023-03-31T05:20:00.672Z,10.6
2023-03-31T05:21:10.529Z,10.6
2023-03-31T05:22:00.621Z,10.6
2023-03-31T05:23:00.612Z,10.6
2023-03-31T05:24:00.611Z,10.6
2023-03-31T05:25:00.778Z,10.6
2023-03-31T05:26:00.689Z,10.7
2023-03-31T05:27:00.587Z,10.7
2023-03-31T05:28:01.046Z,10.6
2023-03-31T05:29:00.584Z,10.6
2023-03-31T05:30:01.048Z,10.6
2023-03-31T05:31:01.076Z,10.6
2023-03-31T05:32:00.648Z,10.7
2023-03-31T05:33:00.626Z,10.7
2023-03-31T05:34:00.585Z,10.6
2023-03-31T05:35:00.599Z,10.6
2023-03-31T05:36:00.705Z,10.6
2023-03-31T05:37:00.656Z,10.6
2023-03-31T05:38:00.588Z,10.5
2023-03-31T05:39:00.587Z,10.5
2023-03-31T05:40:00.683Z,10.4
2023-03-31T05:41:00.603Z,10.4
2023-03-31T05:42:00.689Z,10.4
2023-03-31T05:43:00.598Z,10.4
2023-03-31T05:44:00.621Z,10.5
2023-03-31T05:45:00.671Z,10.5
2023-03-31T05:46:00.927Z,10.4
2023-03-31T05:47:00.595Z,10.4
2023-03-31T05:48:00.636Z,10.4
2023-03-31T05:49:00.624Z,10.4
2023-03-31T05:50:00.596Z,10.4
2023-03-31T05:51:00.720Z,10.4
2023-03-31T05:52:00.583Z,10.4
2023-03-31T05:53:00.594Z,10.4
2023-03-31T05:54:00.602Z,10.4
2023-03-31T05:55:00.673Z,10.4
2023-03-31T05:56:02.332Z,10.5
2023-03-31T05:57:00.676Z,10.5
2023-03-31T05:58:00.646Z,10.4
2023-03-31T05:59:00.619Z,10.4
2023-03-31T06:00:00.623Z,10.4
2023-03-31T06:01:03.269Z,10.4
2023-03-31T06:02:01.486Z,10.4
2023-03-31T06:03:00.738Z,10.4
2023-03-31T06:04:00.655Z,10.4
2023-03-31T06:05:00.588Z,10.4
2023-03-31T06:06:00.794Z,10.6
2023-03-31T06:07:00.617Z,10.6
2023-03-31T06:08:00.648Z,10.5
2023-03-31T06:09:00.661Z,10.5
2023-03-31T06:10:00.611Z,10.5
2023-03-31T06:11:03.291Z,10.5
2023-03-31T06:12:00.620Z,10.4
2023-03-31T06:13:00.591Z,10.4
2023-03-31T06:14:00.612Z,10.5
2023-03-31T06:15:00.669Z,10.5
2023-03-31T06:16:00.791Z,10.5
2023-03-31T06:17:00.592Z,10.5
2023-03-31T06:18:00.628Z,10.5
2023-03-31T06:19:00.594Z,10.5
2023-03-31T06:20:00.624Z,10.5
2023-03-31T06:21:00.636Z,10.5
2023-03-31T06:22:00.769Z,10.5
2023-03-31T06:23:00.630Z,10.5
2023-03-31T06:24:00.650Z,10.5
2023-03-31T06:25:00.605Z,10.5
2023-03-31T06:26:02.074Z,10.4
2023-03-31T06:27:00.600Z,10.4
2023-03-31T06:28:00.579Z,10.5
2023-03-31T06:29:00.599Z,10.5
2023-03-31T06:30:00.604Z,10.6
2023-03-31T06:31:01.424Z,10.6
2023-03-31T06:32:00.690Z,10.5
2023-03-31T06:33:00.644Z,10.5
2023-03-31T06:34:00.609Z,10.6
2023-03-31T06:35:00.652Z,10.6
2023-03-31T06:36:00.992Z,10.5
2023-03-31T06:37:00.603Z,10.5
2023-03-31T06:38:00.575Z,10.5
2023-03-31T06:39:00.579Z,10.5
2023-03-31T06:40:00.593Z,10.4
2023-03-31T06:41:00.805Z,10.4
2023-03-31T06:42:00.601Z,10.6
2023-03-31T06:43:00.633Z,10.6
2023-03-31T06:44:00.606Z,10.4
2023-03-31T06:45:00.598Z,10.4
2023-03-31T06:46:00.597Z,10.3
2023-03-31T06:47:00.596Z,10.3
2023-03-31T06:48:00.676Z,10.4
2023-03-31T06:49:00.748Z,10.4
2023-03-31T06:50:00.599Z,10.5
2023-03-31T06:51:01.374Z,10.5
2023-03-31T06:52:00.867Z,10.4
2023-03-31T06:53:00.601Z,10.4
2023-03-31T06:54:00.585Z,10.4
2023-03-31T06:55:00.943Z,10.4
2023-03-31T06:56:00.649Z,10.5
2023-03-31T06:57:00.618Z,10.5
2023-03-31T06:58:00.677Z,10.5
2023-03-31T06:59:00.632Z,10.5
2023-03-31T07:00:00.601Z,10.4
2023-03-31T07:01:01.803Z,10.4
2023-03-31T07:02:00.672Z,10.4
2023-03-31T07:03:00.673Z,10.4
2023-03-31T07:04:00.588Z,10.5
2023-03-31T07:05:00.588Z,10.5
2023-03-31T07:06:00.602Z,10.5
2023-03-31T07:07:00.606Z,10.5
2023-03-31T07:08:00.994Z,10.5
2023-03-31T07:09:00.601Z,10.5
2023-03-31T07:10:00.583Z,10.5
2023-03-31T07:11:00.910Z,10.5
2023-03-31T07:12:00.609Z,10.5
2023-03-31T07:13:00.586Z,10.5
2023-03-31T07:14:00.596Z,10.4
2023-03-31T07:15:00.721Z,10.4
2023-03-31T07:16:00.651Z,10.3
2023-03-31T07:17:00.604Z,10.3
2023-03-31T07:18:00.648Z,10.4
2023-03-31T07:19:00.642Z,10.4
2023-03-31T07:20:00.602Z,10.4
2023-03-31T07:21:00.636Z,10.4
2023-03-31T07:22:00.589Z,10.4
2023-03-31T07:23:02.529Z,10.4
2023-03-31T07:24:00.654Z,10.4
2023-03-31T07:25:00.595Z,10.4
2023-03-31T07:26:00.597Z,10.4
2023-03-31T07:27:00.593Z,10.4
2023-03-31T07:28:01.818Z,10.4
2023-03-31T07:29:00.603Z,10.4
2023-03-31T07:30:00.885Z,10.4
2023-03-31T07:31:00.617Z,10.4
2023-03-31T07:32:00.729Z,10.4
2023-03-31T07:33:01.056Z,10.4
2023-03-31T07:34:01.354Z,10.4
2023-03-31T07:35:00.596Z,10.4
2023-03-31T07:36:11.711Z,10.4
2023-03-31T07:37:00.590Z,10.4
2023-03-31T07:38:00.580Z,10.4
2023-03-31T07:39:00.715Z,10.4
2023-03-31T07:40:00.644Z,10.5
2023-03-31T07:41:08.568Z,10.5
2023-03-31T07:42:00.589Z,10.5
2023-03-31T07:43:00.687Z,10.5
2023-03-31T07:44:00.990Z,10.5
2023-03-31T07:45:01.129Z,10.5
2023-03-31T07:46:00.620Z,10.6
2023-03-31T07:47:00.627Z,10.6
2023-03-31T07:48:00.725Z,10.6
2023-03-31T07:49:00.590Z,10.6
2023-03-31T07:50:00.583Z,10.6
2023-03-31T07:51:00.599Z,10.6
2023-03-31T07:52:01.073Z,10.6
2023-03-31T07:53:00.638Z,10.6
2023-03-31T07:54:00.581Z,10.7
2023-03-31T07:55:00.603Z,10.7
2023-03-31T07:56:00.602Z,10.7
2023-03-31T07:57:00.654Z,10.7
2023-03-31T07:58:00.589Z,10.7
2023-03-31T07:59:00.596Z,10.7
2023-03-31T08:00:00.692Z,10.7
2023-03-31T08:01:00.683Z,10.7
2023-03-31T08:02:00.734Z,10.7
2023-03-31T08:03:00.701Z,10.7
2023-03-31T08:04:00.657Z,10.7
2023-03-31T08:05:00.670Z,10.7
2023-03-31T08:06:00.594Z,10.7
2023-03-31T08:07:00.578Z,10.7
2023-03-31T08:08:00.629Z,10.7
2023-03-31T08:09:00.760Z,10.7
2023-03-31T08:10:02.469Z,10.7
2023-03-31T08:11:00.581Z,10.7
2023-03-31T08:12:00.891Z,10.8
2023-03-31T08:13:00.633Z,10.8
2023-03-31T08:14:00.624Z,10.8
2023-03-31T08:15:00.620Z,10.8
2023-03-31T08:16:00.895Z,10.9
2023-03-31T08:17:00.730Z,10.9
2023-03-31T08:18:01.760Z,10.9
2023-03-31T08:19:00.734Z,10.9
2023-03-31T08:20:05.123Z,10.9
2023-03-31T08:21:00.672Z,10.9
2023-03-31T08:22:01.305Z,11.0
2023-03-31T08:23:00.594Z,11.0
2023-03-31T08:24:00.605Z,11.0
2023-03-31T08:25:00.720Z,11.0
2023-03-31T08:26:08.891Z,11.2
2023-03-31T08:27:00.580Z,11.2
2023-03-31T08:28:00.593Z,11.2
2023-03-31T08:29:00.618Z,11.2
2023-03-31T08:30:00.619Z,11.2
2023-03-31T08:31:02.616Z,11.2
2023-03-31T08:32:00.682Z,11.3
2023-03-31T08:33:00.705Z,11.3
2023-03-31T08:34:00.671Z,11.4
2023-03-31T08:35:00.761Z,11.4
2023-03-31T08:36:01.412Z,11.4
2023-03-31T08:37:00.673Z,11.4
2023-03-31T08:38:00.596Z,11.3
2023-03-31T08:39:00.592Z,11.3
2023-03-31T08:40:00.604Z,11.4
2023-03-31T08:41:01.149Z,11.4
2023-03-31T08:42:04.188Z,11.5
2023-03-31T08:43:05.973Z,11.5
2023-03-31T08:44:03.709Z,11.5
2023-03-31T08:45:04.368Z,11.5
2023-03-31T08:46:02.176Z,11.5
2023-03-31T08:47:02.294Z,11.5
2023-03-31T08:48:07.220Z,11.4
2023-03-31T08:49:02.545Z,11.4
2023-03-31T08:50:10.517Z,11.6
2023-03-31T08:51:05.321Z,11.6
2023-03-31T08:52:03.569Z,11.5
2023-03-31T08:53:00.596Z,11.5
2023-03-31T08:54:03.737Z,11.5
2023-03-31T08:55:03.815Z,11.5
2023-03-31T08:56:03.320Z,11.6
2023-03-31T08:57:00.747Z,11.6
2023-03-31T08:58:00.577Z,11.7
2023-03-31T08:59:00.607Z,11.7
2023-03-31T09:00:00.680Z,11.7
2023-03-31T09:01:00.622Z,11.7
2023-03-31T09:02:10.590Z,11.7
2023-03-31T09:03:07.096Z,11.7
2023-03-31T09:04:12.500Z,11.8
2023-03-31T09:05:00.597Z,11.8
2023-03-31T09:06:02.595Z,11.7
2023-03-31T09:07:07.695Z,11.7
2023-03-31T09:08:06.560Z,11.7
2023-03-31T09:09:02.094Z,11.7
2023-03-31T09:10:01.581Z,11.9
2023-03-31T09:11:06.034Z,11.9
2023-03-31T09:12:10.536Z,11.9
2023-03-31T09:13:00.578Z,11.9
2023-03-31T09:14:01.578Z,11.9
2023-03-31T09:15:02.841Z,11.9
2023-03-31T09:16:08.425Z,11.9
2023-03-31T09:17:10.567Z,11.9
2023-03-31T09:18:06.136Z,11.9
2023-03-31T09:19:00.870Z,11.9
2023-03-31T09:20:04.428Z,11.9
2023-03-31T09:21:06.047Z,11.9
2023-03-31T09:22:02.577Z,11.9
2023-03-31T09:23:10.182Z,11.9
2023-03-31T09:24:03.840Z,12.0
2023-03-31T09:25:10.538Z,12.0
2023-03-31T09:26:01.878Z,12.0
2023-03-31T09:27:00.584Z,12.0
2023-03-31T09:28:02.485Z,12.0
2023-03-31T09:32:01.352Z,12.0
2023-03-31T09:34:09.903Z,12.1
2023-03-31T09:35:10.587Z,12.1
2023-03-31T09:36:05.471Z,12.1
2023-03-31T09:37:00.708Z,12.1
2023-03-31T09:38:00.656Z,12.0
2023-03-31T09:39:00.670Z,12.0
2023-03-31T09:40:02.416Z,12.0
2023-03-31T09:41:01.433Z,12.0
2023-03-31T09:42:00.647Z,12.1
2023-03-31T09:43:03.030Z,12.1
2023-03-31T09:44:00.686Z,12.0
2023-03-31T09:45:00.854Z,12.0
2023-03-31T09:46:09.694Z,11.9
2023-03-31T09:47:01.493Z,11.9
2023-03-31T09:48:03.862Z,12.0
2023-03-31T09:49:03.109Z,12.0
2023-03-31T09:50:00.697Z,11.9
2023-03-31T09:51:03.545Z,11.9
2023-03-31T09:52:03.255Z,12.1
2023-03-31T09:53:03.955Z,12.1
2023-03-31T09:54:05.572Z,12.0
2023-03-31T09:55:01.839Z,12.0
2023-03-31T09:56:01.659Z,11.9
2023-03-31T09:57:00.690Z,11.9
2023-03-31T09:58:00.634Z,12.0
2023-03-31T09:59:01.300Z,12.0
2023-03-31T10:00:02.558Z,11.9
2023-03-31T10:01:03.070Z,11.9
2023-03-31T10:02:02.449Z,11.9
2023-03-31T10:03:01.626Z,11.9
2023-03-31T10:04:00.730Z,11.8
2023-03-31T10:05:01.198Z,11.8
2023-03-31T10:06:02.119Z,11.7
2023-03-31T10:07:02.997Z,11.7
2023-03-31T10:08:10.583Z,11.7
2023-03-31T10:09:01.447Z,11.7
2023-03-31T10:10:01.093Z,11.7
2023-03-31T10:11:00.631Z,11.7
2023-03-31T10:12:03.896Z,11.8
2023-03-31T10:13:06.229Z,11.8
2023-03-31T10:14:03.787Z,11.8
2023-03-31T10:15:10.567Z,11.8
2023-03-31T10:16:02.338Z,11.8
2023-03-31T10:17:04.059Z,11.8
2023-03-31T10:18:00.743Z,11.8
2023-03-31T10:19:10.572Z,11.8
2023-03-31T10:20:05.123Z,11.9
2023-03-31T10:21:01.868Z,11.9
2023-03-31T10:22:03.168Z,11.9
2023-03-31T10:23:03.543Z,11.9
2023-03-31T10:24:06.807Z,12.0
2023-03-31T10:25:10.587Z,12.0
2023-03-31T10:26:01.847Z,11.9
2023-03-31T10:27:00.657Z,11.9
2023-03-31T10:28:01.142Z,12.1
2023-03-31T10:29:00.740Z,12.1
2023-03-31T10:30:01.894Z,12.0
2023-03-31T10:31:00.996Z,12.0
2023-03-31T10:32:03.048Z,11.9
2023-03-31T10:33:15.372Z,11.9
2023-03-31T10:34:05.163Z,12.1
2023-03-31T10:35:10.616Z,12.1
2023-03-31T10:36:02.442Z,12.1
2023-03-31T10:37:03.614Z,12.1
2023-03-31T10:38:06.488Z,12.1
2023-03-31T10:39:05.267Z,12.1
2023-03-31T10:40:03.406Z,12.1
2023-03-31T10:41:00.916Z,12.1
2023-03-31T10:42:00.658Z,12.2
2023-03-31T10:43:03.125Z,12.2
2023-03-31T10:44:02.151Z,12.1
2023-03-31T10:45:10.573Z,12.1
2023-03-31T10:46:00.714Z,12.3
2023-03-31T10:47:03.175Z,12.3
2023-03-31T10:48:00.698Z,12.1
2023-03-31T10:49:10.562Z,12.1
2023-03-31T10:50:03.240Z,12.1
2023-03-31T10:51:05.491Z,12.1
2023-03-31T10:52:00.656Z,12.2
2023-03-31T10:53:02.181Z,12.2
2023-03-31T10:54:00.815Z,12.2
2023-03-31T10:55:00.701Z,12.2
2023-03-31T10:56:07.960Z,12.2
2023-03-31T10:57:01.779Z,12.2
2023-03-31T10:58:10.585Z,12.1
2023-03-31T10:59:10.580Z,12.1
2023-03-31T11:00:07.029Z,12.1
2023-03-31T11:01:00.609Z,12.1
2023-03-31T11:02:10.719Z,12.1
2023-03-31T11:03:04.005Z,12.1
2023-03-31T11:04:09.539Z,12.1
2023-03-31T11:05:10.568Z,12.1
2023-03-31T11:06:10.564Z,12.0
2023-03-31T11:07:10.579Z,12.0
2023-03-31T11:08:10.588Z,12.2
2023-03-31T11:09:06.615Z,12.2
2023-03-31T11:10:00.628Z,12.3
2023-03-31T11:11:10.572Z,12.3
2023-03-31T11:12:10.561Z,12.3
2023-03-31T11:13:10.563Z,12.3
2023-03-31T11:14:10.559Z,12.5
2023-03-31T11:15:08.080Z,12.5
2023-03-31T11:16:10.641Z,12.4
2023-03-31T11:17:10.629Z,12.4
2023-03-31T11:18:10.637Z,12.5
2023-03-31T11:19:10.577Z,12.5
2023-03-31T11:20:08.508Z,12.7
2023-03-31T11:21:06.123Z,12.7
2023-03-31T11:22:05.911Z,12.6
2023-03-31T11:23:06.606Z,12.6
2023-03-31T11:24:00.618Z,12.6
2023-03-31T11:25:10.561Z,12.6
2023-03-31T11:26:04.190Z,12.5
2023-03-31T11:27:07.279Z,12.5
2023-03-31T11:28:10.586Z,12.4
2023-03-31T11:29:10.426Z,12.4
2023-03-31T11:30:10.561Z,12.4
2023-03-31T11:31:00.629Z,12.4
2023-03-31T11:32:10.689Z,12.5
2023-03-31T11:33:10.658Z,12.5
2023-03-31T11:34:01.647Z,12.6
2023-03-31T11:35:06.836Z,12.6
2023-03-31T11:36:10.679Z,12.7
2023-03-31T11:37:01.652Z,12.7
2023-03-31T11:38:01.666Z,12.8
2023-03-31T11:39:10.580Z,12.8
2023-03-31T11:40:00.631Z,12.8
2023-03-31T11:41:04.872Z,12.8
2023-03-31T11:42:03.513Z,13.0
2023-03-31T11:43:10.584Z,13.0
2023-03-31T11:44:03.948Z,13.0
2023-03-31T11:45:04.336Z,13.0
2023-03-31T11:46:03.473Z,13.0
2023-03-31T11:47:01.934Z,13.0
2023-03-31T11:48:06.876Z,13.1
2023-03-31T11:49:03.572Z,13.1
2023-03-31T11:50:10.496Z,13.0
2023-03-31T11:51:02.268Z,13.0
2023-03-31T11:52:02.613Z,13.1
2023-03-31T11:53:04.516Z,13.1
2023-03-31T11:54:03.246Z,13.1
2023-03-31T11:55:05.334Z,13.1
2023-03-31T11:56:01.447Z,13.2
2023-03-31T11:57:02.314Z,13.2
2023-03-31T11:58:00.614Z,13.1
2023-03-31T11:59:01.950Z,13.1
2023-03-31T12:00:05.084Z,13.0
2023-03-31T12:01:10.646Z,13.0
2023-03-31T12:02:00.617Z,13.0
2023-03-31T12:03:10.619Z,13.0
2023-03-31T12:04:03.932Z,12.9
2023-03-31T12:05:03.464Z,12.9
2023-03-31T12:06:01.903Z,12.8
2023-03-31T12:07:04.631Z,12.8
2023-03-31T12:08:05.466Z,12.8
2023-03-31T12:09:04.847Z,12.8
2023-03-31T12:10:10.593Z,12.8
2023-03-31T12:11:04.932Z,12.8
2023-03-31T12:12:10.575Z,12.8
2023-03-31T12:13:10.562Z,12.8
2023-03-31T12:14:10.604Z,12.9
2023-03-31T12:15:07.691Z,12.9
2023-03-31T12:16:04.345Z,12.8
2023-03-31T12:17:03.746Z,12.8
2023-03-31T12:18:03.379Z,12.8
2023-03-31T12:19:00.634Z,12.8
2023-03-31T12:20:03.255Z,12.8
2023-03-31T12:21:02.347Z,12.8
2023-03-31T12:22:01.646Z,12.8
2023-03-31T12:23:02.578Z,12.8
2023-03-31T12:24:00.665Z,12.8
2023-03-31T12:25:00.684Z,12.8
2023-03-31T12:26:00.620Z,13.0
2023-03-31T12:27:10.565Z,13.0
2023-03-31T12:28:01.826Z,13.0
2023-03-31T12:29:05.618Z,13.0
2023-03-31T12:30:03.190Z,13.0
2023-03-31T12:31:03.800Z,13.0
2023-03-31T12:32:04.216Z,12.9
2023-03-31T12:33:05.262Z,12.9
2023-03-31T12:34:03.655Z,12.9
2023-03-31T12:35:02.907Z,12.9
2023-03-31T12:36:01.677Z,13.0
2023-03-31T12:37:10.568Z,13.0
2023-03-31T12:38:07.803Z,13.0
2023-03-31T12:39:01.657Z,13.0
2023-03-31T12:40:01.654Z,12.9
2023-03-31T12:41:01.641Z,12.9
2023-03-31T12:42:10.562Z,12.8
2023-03-31T12:43:00.626Z,12.8
2023-03-31T12:44:00.624Z,12.9
2023-03-31T12:45:10.579Z,12.9
2023-03-31T12:46:10.600Z,13.1
2023-03-31T12:47:10.615Z,13.1
2023-03-31T12:48:01.738Z,13.1
2023-03-31T12:49:10.565Z,13.1
2023-03-31T12:50:10.595Z,13.3
2023-03-31T12:51:08.724Z,13.3
2023-03-31T12:52:03.888Z,13.3
2023-03-31T12:53:09.871Z,13.3
2023-03-31T12:54:00.895Z,13.5
2023-03-31T12:55:10.584Z,13.5
2023-03-31T12:56:00.988Z,13.4
2023-03-31T12:57:00.753Z,13.4
2023-03-31T12:58:10.576Z,13.4
2023-03-31T12:59:10.569Z,13.4
2023-03-31T13:00:08.067Z,13.4
2023-03-31T13:01:00.665Z,13.4
2023-03-31T13:02:10.612Z,13.4
2023-03-31T13:03:10.580Z,13.4
2023-03-31T13:04:10.585Z,13.4
2023-03-31T13:05:10.561Z,13.4
2023-03-31T13:06:01.141Z,13.6
2023-03-31T13:07:00.652Z,13.6
2023-03-31T13:08:00.809Z,13.4
2023-03-31T13:09:03.570Z,13.4
2023-03-31T13:10:12.275Z,13.5
2023-03-31T13:11:00.706Z,13.5
2023-03-31T13:12:10.583Z,13.4
2023-03-31T13:13:02.728Z,13.4
2023-03-31T13:14:03.551Z,13.5
2023-03-31T13:15:03.231Z,13.5
2023-03-31T13:16:01.179Z,13.3
2023-03-31T13:17:10.672Z,13.3
2023-03-31T13:18:02.406Z,13.3
2023-03-31T13:19:00.674Z,13.3
2023-03-31T13:20:10.583Z,13.2
2023-03-31T13:22:03.256Z,13.1
2023-03-31T13:23:03.178Z,13.1